Jbu Maas — 3EQY6 — position and weather

sailwx.info

Track history (hours):
 
Tides and Currents Weather Stations Pressure Air Temp Water Temp Dewpoint Dewpoint Depression Visibility Wind Speed Wind Dir Waves Ship Positions

Jbu Maas

Last reported at 2014-Jun-23 15:33 UTC. Time now 2014-Jul-29 02:35 UTC.
Position N 01°14' E 103°58'.
Warning: this ship's position is 35 days out of date.

Length 126 m; draft 6 m.

Type: Tanker. MMSI: 372492000.

Date/timePositionNaut miles runAvg speedWind from/ knotsBaromVisibWave heightAir tempDewpointWater temp
2014-Jun-23 15:33N 01°14' E 103°58'1615.4
2014-Jun-23 14:33N 01°06' E 103°44'8 4.0
2014-Jun-23 12:33N 01°12' E 103°39'1 1.3
2014-Jun-23 11:30N 01°14' E 103°39'0 0.0
2014-Jun-23 10:33N 01°14' E 103°39'0 0.0
2014-Jun-23 09:24N 01°14' E 103°39'0 0.1
2014-Jun-23 08:33N 01°14' E 103°39'0 0.0
2014-Jun-23 07:33N 01°14' E 103°39'0 0.1
2014-Jun-23 06:33N 01°13' E 103°39'0 0.0
2014-Jun-23 05:27N 01°13' E 103°39'0 0.0
2014-Jun-23 04:33N 01°13' E 103°39'0 0.0
2014-Jun-23 03:33N 01°13' E 103°39'0 0.1
2014-Jun-23 02:24N 01°14' E 103°39'0 0.1
2014-Jun-23 01:33N 01°14' E 103°39'0 0.1
2014-Jun-23 00:33N 01°14' E 103°39'8 7.7
2014-Jun-22 23:33N 01°09' E 103°45'  
2014-Jun-18 00:15N 22°27' E 119°50'812.3
2014-Jun-17 23:33N 22°33' E 119°56'  
Track history (hours):
 
Tides and Currents Weather Stations Pressure Air Temp Water Temp Dewpoint Dewpoint Depression Visibility Wind Speed Wind Dir Waves Ship Positions

Jbu Maas

Last reported at 2014-Jun-23 15:33 UTC. Time now 2014-Jul-29 02:35 UTC.
Position N 01°14' E 103°58'.
Warning: this ship's position is 35 days out of date.

Length 126 m; draft 6 m.

Type: Tanker. MMSI: 372492000.

Date/timePositionNaut miles runAvg speedWind from/ knotsBaromVisibWave heightAir tempDewpointWater temp
2014-Jun-23 15:33N 01°14' E 103°58'1615.4
2014-Jun-23 14:33N 01°06' E 103°44'8 4.0
2014-Jun-23 12:33N 01°12' E 103°39'1 1.3
2014-Jun-23 11:30N 01°14' E 103°39'0 0.0
2014-Jun-23 10:33N 01°14' E 103°39'0 0.0
2014-Jun-23 09:24N 01°14' E 103°39'0 0.1
2014-Jun-23 08:33N 01°14' E 103°39'0 0.0
2014-Jun-23 07:33N 01°14' E 103°39'0 0.1
2014-Jun-23 06:33N 01°13' E 103°39'0 0.0
2014-Jun-23 05:27N 01°13' E 103°39'0 0.0
2014-Jun-23 04:33N 01°13' E 103°39'0 0.0
2014-Jun-23 03:33N 01°13' E 103°39'0 0.1
2014-Jun-23 02:24N 01°14' E 103°39'0 0.1
2014-Jun-23 01:33N 01°14' E 103°39'0 0.1
2014-Jun-23 00:33N 01°14' E 103°39'8 7.7
2014-Jun-22 23:33N 01°09' E 103°45'  
2014-Jun-18 00:15N 22°27' E 119°50'812.3
2014-Jun-17 23:33N 22°33' E 119°56'  

Dump ship's entire track history